createdAt,value
2019-03-09T00:00:43.920Z,8.40
2019-03-09T00:03:14.258Z,8.30
2019-03-09T00:05:44.743Z,8.30
2019-03-09T00:08:15.131Z,8.50
2019-03-09T00:10:45.551Z,8.40
2019-03-09T00:13:16.074Z,8.50
2019-03-09T00:15:46.314Z,8.50
2019-03-09T00:18:16.810Z,8.60
2019-03-09T00:20:46.864Z,8.50
2019-03-09T00:23:34.787Z,8.50
2019-03-09T00:26:21.690Z,8.50
2019-03-09T00:29:05.643Z,8.50
2019-03-09T00:31:39.078Z,8.30
2019-03-09T00:34:08.916Z,8.50
2019-03-09T00:36:38.669Z,8.40
2019-03-09T00:39:08.678Z,8.30
2019-03-09T00:41:38.333Z,8.30
2019-03-09T00:44:08.721Z,8.40
2019-03-09T00:46:39.168Z,8.30
2019-03-09T00:49:11.213Z,8.30
2019-03-09T00:51:40.823Z,8.30
2019-03-09T00:54:11.223Z,8.30
2019-03-09T00:56:41.139Z,8.30
2019-03-09T00:59:10.903Z,8.20
2019-03-09T01:01:40.884Z,8.20
2019-03-09T01:04:11.439Z,8.20
2019-03-09T01:06:41.019Z,8.20
2019-03-09T01:09:12.303Z,8.20
2019-03-09T01:11:42.561Z,8.20
2019-03-09T01:14:12.203Z,8.20
2019-03-09T01:16:42.109Z,8.10
2019-03-09T01:19:11.847Z,8.10
2019-03-09T01:21:41.770Z,8.10
2019-03-09T01:24:11.707Z,8.10
2019-03-09T01:26:41.260Z,8.10
2019-03-09T01:29:11.564Z,8.10
2019-03-09T01:31:41.790Z,8.10
2019-03-09T01:34:11.821Z,8.10
2019-03-09T01:36:41.579Z,8.10
2019-03-09T01:39:12.423Z,8.00
2019-03-09T01:41:42.426Z,7.90
2019-03-09T01:44:12.755Z,7.90
2019-03-09T01:46:42.498Z,7.80
2019-03-09T01:49:12.457Z,7.80
2019-03-09T01:51:42.171Z,7.80
2019-03-09T01:54:12.353Z,7.80
2019-03-09T01:56:42.187Z,7.70
2019-03-09T01:59:14.607Z,7.60
2019-03-09T02:01:44.552Z,7.70
2019-03-09T02:04:15.029Z,7.60
2019-03-09T02:06:44.948Z,7.60
2019-03-09T02:09:14.610Z,7.60
2019-03-09T02:11:44.330Z,7.50
2019-03-09T02:14:15.213Z,7.60
2019-03-09T02:16:45.079Z,7.60
2019-03-09T02:19:15.111Z,7.70
2019-03-09T02:21:45.672Z,7.70
2019-03-09T02:24:15.962Z,7.70
2019-03-09T02:26:45.571Z,7.70
2019-03-09T02:29:15.276Z,7.80
2019-03-09T02:31:44.888Z,7.90
2019-03-09T02:34:15.211Z,7.90
2019-03-09T02:36:44.800Z,8.00
2019-03-09T02:39:37.923Z,8.00
2019-03-09T02:42:07.523Z,8.00
2019-03-09T02:44:37.747Z,8.00
2019-03-09T02:47:07.424Z,8.10
2019-03-09T02:49:37.154Z,8.20
2019-03-09T02:52:06.706Z,8.10
2019-03-09T02:54:37.087Z,8.20
2019-03-09T02:57:06.888Z,8.10
2019-03-09T02:59:36.551Z,8.10
2019-03-09T03:02:23.772Z,8.20
2019-03-09T03:04:54.130Z,8.10
2019-03-09T03:07:25.187Z,8.20
2019-03-09T03:09:54.811Z,8.30
2019-03-09T03:12:24.633Z,8.30
2019-03-09T03:14:54.361Z,8.40
2019-03-09T03:17:24.012Z,8.40
2019-03-09T03:19:53.762Z,8.50
2019-03-09T03:22:23.448Z,8.50
2019-03-09T03:24:53.409Z,8.50
2019-03-09T03:27:23.143Z,8.60
2019-03-09T03:29:53.107Z,8.50
2019-03-09T03:32:23.905Z,8.50
2019-03-09T03:34:54.042Z,8.50
2019-03-09T03:37:23.964Z,8.50
2019-03-09T03:39:54.229Z,8.50
2019-03-09T03:42:24.414Z,8.50
2019-03-09T03:44:54.556Z,8.60
2019-03-09T03:47:24.653Z,8.60
2019-03-09T03:49:55.233Z,8.50
2019-03-09T03:52:24.954Z,8.50
2019-03-09T03:54:55.329Z,8.50
2019-03-09T03:57:25.240Z,8.50
2019-03-09T03:59:54.779Z,8.50
2019-03-09T04:02:24.555Z,8.50
2019-03-09T04:04:54.436Z,8.40
2019-03-09T04:07:24.956Z,8.40
2019-03-09T04:09:55.060Z,8.40
2019-03-09T04:12:24.691Z,8.40
2019-03-09T04:14:54.679Z,8.40
2019-03-09T04:17:24.398Z,8.40
2019-03-09T04:19:53.987Z,8.40
2019-03-09T04:22:23.534Z,8.50
2019-03-09T04:24:53.522Z,8.40
2019-03-09T04:27:23.153Z,8.50
2019-03-09T04:29:53.308Z,8.40
2019-03-09T04:32:22.926Z,8.50
2019-03-09T04:34:53.312Z,8.40
2019-03-09T04:37:23.521Z,8.50
2019-03-09T04:39:53.444Z,8.40
2019-03-09T04:42:23.046Z,8.50
2019-03-09T04:44:52.742Z,8.40
2019-03-09T04:47:22.589Z,8.30
2019-03-09T04:49:54.224Z,8.40
2019-03-09T04:52:23.819Z,8.40
2019-03-09T04:54:53.532Z,8.30
2019-03-09T04:57:23.108Z,8.30
2019-03-09T04:59:52.918Z,8.30
2019-03-09T05:02:22.524Z,8.30
2019-03-09T05:04:52.999Z,8.30
2019-03-09T05:07:49.341Z,8.30
2019-03-09T05:10:45.390Z,8.30
2019-03-09T05:13:39.947Z,8.40
2019-03-09T05:16:10.114Z,8.30
2019-03-09T05:18:39.756Z,8.40
2019-03-09T05:21:09.492Z,8.40
2019-03-09T05:23:40.043Z,8.50
2019-03-09T05:26:09.726Z,8.40
2019-03-09T05:28:40.076Z,8.40
2019-03-09T05:31:09.670Z,8.40
2019-03-09T05:33:40.166Z,8.50
2019-03-09T05:36:09.772Z,8.50
2019-03-09T05:38:39.403Z,8.50
2019-03-09T05:41:09.083Z,8.50
2019-03-09T05:43:38.715Z,8.60
2019-03-09T05:46:08.695Z,8.60
2019-03-09T05:48:38.364Z,8.60
2019-03-09T05:51:08.267Z,8.60
2019-03-09T05:53:37.981Z,8.70
2019-03-09T05:56:07.940Z,8.70
2019-03-09T05:58:37.490Z,8.70
2019-03-09T06:01:07.207Z,8.80
2019-03-09T06:03:37.541Z,8.80
2019-03-09T06:06:14.922Z,8.80
2019-03-09T06:08:44.756Z,8.90
2019-03-09T06:11:14.416Z,8.90
2019-03-09T06:13:44.798Z,8.80
2019-03-09T06:16:14.504Z,8.90
2019-03-09T06:18:44.191Z,8.80
2019-03-09T06:21:13.902Z,8.90
2019-03-09T06:23:44.124Z,9.00
2019-03-09T06:26:13.804Z,9.10
2019-03-09T06:28:43.740Z,9.00
2019-03-09T06:31:13.460Z,9.00
2019-03-09T06:33:45.522Z,9.10
2019-03-09T06:36:36.011Z,9.00
2019-03-09T06:39:38.082Z,9.10
2019-03-09T06:42:24.831Z,9.30
2019-03-09T06:44:54.917Z,9.30
2019-03-09T06:47:24.771Z,9.40
2019-03-09T06:49:54.443Z,9.50
2019-03-09T06:52:24.222Z,9.60
2019-03-09T06:54:53.854Z,9.60
2019-03-09T06:57:23.658Z,9.70
2019-03-09T06:59:54.204Z,9.80
2019-03-09T07:02:24.843Z,9.90
2019-03-09T07:04:54.429Z,9.90
2019-03-09T07:07:24.059Z,10.00
2019-03-09T07:09:53.803Z,10.10
2019-03-09T07:12:23.540Z,10.00
2019-03-09T07:15:25.066Z,10.00
2019-03-09T07:17:59.999Z,10.00
2019-03-09T07:20:30.314Z,10.10
2019-03-09T07:22:59.928Z,10.10
2019-03-09T07:25:29.601Z,10.00
2019-03-09T07:28:11.573Z,9.80
2019-03-09T07:30:41.350Z,9.50
2019-03-09T07:33:11.759Z,9.30
2019-03-09T07:38:17.942Z,9.00
2019-03-09T07:40:47.655Z,8.90
2019-03-09T07:43:18.083Z,8.90
2019-03-09T07:45:47.963Z,8.80
2019-03-09T07:48:18.370Z,8.80
2019-03-09T07:50:48.068Z,8.80
2019-03-09T07:53:18.015Z,8.80
2019-03-09T07:55:47.756Z,8.80
2019-03-09T07:58:17.351Z,8.90
2019-03-09T08:00:46.961Z,8.90
2019-03-09T08:03:17.409Z,8.90
2019-03-09T08:05:47.584Z,9.00
2019-03-09T08:08:18.319Z,9.10
2019-03-09T08:10:48.037Z,9.30
2019-03-09T08:13:18.412Z,9.40
2019-03-09T08:15:48.114Z,9.50
2019-03-09T08:18:18.565Z,9.60
2019-03-09T08:20:48.208Z,9.70
2019-03-09T08:23:18.603Z,9.90
2019-03-09T08:25:48.237Z,9.90
2019-03-09T08:28:18.711Z,10.10
2019-03-09T08:30:48.907Z,10.20
2019-03-09T08:33:21.985Z,10.30
2019-03-09T08:35:51.969Z,10.30
2019-03-09T08:38:21.804Z,10.30
2019-03-09T08:40:51.615Z,10.40
2019-03-09T08:43:21.586Z,10.50
2019-03-09T08:45:51.292Z,10.60
2019-03-09T08:48:21.226Z,10.90
2019-03-09T08:50:50.981Z,11.00
2019-03-09T08:53:20.701Z,11.00
2019-03-09T08:55:50.411Z,11.10
2019-03-09T08:58:20.363Z,11.20
2019-03-09T09:00:50.427Z,11.20
2019-03-09T09:03:20.735Z,11.40
2019-03-09T09:05:50.730Z,11.70
2019-03-09T09:08:21.176Z,11.80
2019-03-09T09:10:50.958Z,11.90
2019-03-09T09:13:23.832Z,12.00
2019-03-09T09:15:54.061Z,11.90
2019-03-09T09:18:24.270Z,12.10
2019-03-09T09:20:54.366Z,12.10
2019-03-09T09:23:24.719Z,12.40
2019-03-09T09:25:54.488Z,12.70
2019-03-09T09:28:24.233Z,13.10
2019-03-09T09:30:54.369Z,13.30
2019-03-09T09:33:24.235Z,13.40
2019-03-09T09:35:54.009Z,13.30
2019-03-09T09:38:24.617Z,13.30
2019-03-09T09:40:54.687Z,13.40
2019-03-09T09:43:24.961Z,13.30
2019-03-09T09:45:54.893Z,13.20
2019-03-09T09:48:25.081Z,13.30
2019-03-09T09:50:54.971Z,13.10
2019-03-09T09:53:24.987Z,13.10
2019-03-09T09:55:54.971Z,13.20
2019-03-09T09:58:24.852Z,13.10
2019-03-09T10:00:54.940Z,12.70
2019-03-09T10:03:25.927Z,12.60
2019-03-09T10:05:56.034Z,12.60
2019-03-09T10:08:26.555Z,12.60
2019-03-09T10:10:56.889Z,12.50
2019-03-09T10:13:26.903Z,12.70
2019-03-09T10:15:56.671Z,13.00
2019-03-09T10:18:26.665Z,13.40
2019-03-09T10:20:56.507Z,13.80
2019-03-09T10:23:27.444Z,14.00
2019-03-09T10:25:58.704Z,13.80
2019-03-09T10:28:29.252Z,13.60
2019-03-09T10:30:59.276Z,13.50
2019-03-09T10:33:30.090Z,13.30
2019-03-09T10:36:00.284Z,13.20
2019-03-09T10:38:30.659Z,13.10
2019-03-09T10:41:01.198Z,13.10
2019-03-09T10:43:31.593Z,12.90
2019-03-09T10:46:01.553Z,13.10
2019-03-09T10:48:31.902Z,13.00
2019-03-09T10:51:01.784Z,13.00
2019-03-09T10:53:32.595Z,13.20
2019-03-09T10:56:02.694Z,13.20
2019-03-09T10:58:32.634Z,13.30
2019-03-09T11:01:02.624Z,13.10
2019-03-09T11:03:33.062Z,13.10
2019-03-09T11:06:03.019Z,13.00
2019-03-09T11:08:33.415Z,13.10
2019-03-09T11:11:03.249Z,13.10
2019-03-09T11:13:33.050Z,13.10
2019-03-09T11:16:02.825Z,13.20
2019-03-09T11:18:32.418Z,13.20
2019-03-09T11:21:02.467Z,13.20
2019-03-09T11:23:34.372Z,13.20
2019-03-09T11:26:04.051Z,13.10
2019-03-09T11:28:33.995Z,13.30
2019-03-09T11:31:04.259Z,13.40
2019-03-09T11:33:34.079Z,13.20
2019-03-09T11:36:04.084Z,13.40
2019-03-09T11:38:34.109Z,13.50
2019-03-09T11:41:04.182Z,13.60
2019-03-09T11:43:34.531Z,13.60
2019-03-09T11:46:05.344Z,13.60
2019-03-09T11:48:35.406Z,13.70
2019-03-09T11:51:05.632Z,13.80
2019-03-09T11:53:35.922Z,14.00
2019-03-09T11:56:06.417Z,14.00
2019-03-09T11:58:38.129Z,14.00
2019-03-09T12:01:08.074Z,14.10
2019-03-09T12:03:38.779Z,14.20
2019-03-09T12:06:12.067Z,14.10
2019-03-09T12:08:42.631Z,14.10
2019-03-09T12:11:12.444Z,13.90
2019-03-09T12:13:42.603Z,13.90
2019-03-09T12:16:12.478Z,13.90
2019-03-09T12:18:42.710Z,13.90
2019-03-09T12:21:12.383Z,14.00
2019-03-09T12:23:42.196Z,14.10
2019-03-09T12:26:11.800Z,14.20
2019-03-09T12:28:41.796Z,14.20
2019-03-09T12:31:11.824Z,14.30
2019-03-09T12:33:41.791Z,14.30
2019-03-09T12:36:11.579Z,14.40
2019-03-09T12:38:41.282Z,14.40
2019-03-09T12:41:11.382Z,14.50
2019-03-09T12:43:41.604Z,14.60
2019-03-09T12:46:11.506Z,14.70
2019-03-09T12:48:41.031Z,14.80
2019-03-09T12:51:10.976Z,14.90
2019-03-09T12:53:41.985Z,15.00
2019-03-09T12:56:12.098Z,14.90
2019-03-09T12:58:41.953Z,14.90
2019-03-09T13:01:12.997Z,15.10
2019-03-09T13:03:43.624Z,15.10
2019-03-09T13:06:13.920Z,15.30
2019-03-09T13:08:43.902Z,15.20
2019-03-09T13:11:14.376Z,15.10
2019-03-09T13:13:44.311Z,15.00
2019-03-09T13:16:14.222Z,15.00
2019-03-09T13:18:44.223Z,15.00
2019-03-09T13:21:14.699Z,15.10
2019-03-09T13:23:44.992Z,15.30
2019-03-09T13:26:14.698Z,15.30
2019-03-09T13:28:44.675Z,15.10
2019-03-09T13:31:14.696Z,15.10
2019-03-09T13:33:44.516Z,15.10
2019-03-09T13:36:15.180Z,15.00
2019-03-09T13:38:44.953Z,14.70
2019-03-09T13:41:14.857Z,14.70
2019-03-09T13:43:44.660Z,14.70
2019-03-09T13:46:14.649Z,14.50
2019-03-09T13:48:44.638Z,14.40
2019-03-09T13:51:14.605Z,14.40
2019-03-09T13:53:44.655Z,14.40
2019-03-09T13:56:16.994Z,14.30
2019-03-09T13:58:46.921Z,14.30
2019-03-09T14:01:17.053Z,14.20
2019-03-09T14:03:48.107Z,14.20
2019-03-09T14:06:18.786Z,14.00
2019-03-09T14:08:48.733Z,14.10
2019-03-09T14:11:18.689Z,14.10
2019-03-09T14:13:48.872Z,14.00
2019-03-09T14:16:19.234Z,13.90
2019-03-09T14:18:50.668Z,13.80
2019-03-09T14:21:23.839Z,13.60
2019-03-09T14:23:54.292Z,13.60
2019-03-09T14:26:24.473Z,13.50
2019-03-09T14:28:54.457Z,13.40
2019-03-09T14:31:24.444Z,13.30
2019-03-09T14:33:55.612Z,13.20
2019-03-09T14:36:26.143Z,13.20
2019-03-09T14:38:56.321Z,13.20
2019-03-09T14:41:26.496Z,13.10
2019-03-09T14:43:57.102Z,13.20
2019-03-09T14:46:27.645Z,13.20
2019-03-09T14:48:57.664Z,13.10
2019-03-09T14:51:27.895Z,13.10
2019-03-09T14:53:58.103Z,12.90
2019-03-09T14:56:28.588Z,13.00
2019-03-09T14:58:58.780Z,13.00
2019-03-09T15:01:28.569Z,13.00
2019-03-09T15:03:58.607Z,13.10
2019-03-09T15:06:28.733Z,13.10
2019-03-09T15:08:58.897Z,13.20
2019-03-09T15:11:28.814Z,13.30
2019-03-09T15:13:59.367Z,13.30
2019-03-09T15:16:29.348Z,13.40
2019-03-09T15:18:59.463Z,13.50
2019-03-09T15:21:29.814Z,13.40
2019-03-09T15:23:59.706Z,13.40
2019-03-09T15:26:29.685Z,13.40
2019-03-09T15:28:59.470Z,13.30
2019-03-09T15:31:29.242Z,13.30
2019-03-09T15:33:59.210Z,13.20
2019-03-09T15:36:29.148Z,13.10
2019-03-09T15:38:59.756Z,13.00
2019-03-09T15:41:39.471Z,12.90
2019-03-09T15:44:10.327Z,12.90
2019-03-09T15:46:40.396Z,12.80
2019-03-09T15:49:10.353Z,12.80
2019-03-09T15:51:40.269Z,12.80
2019-03-09T15:54:11.076Z,12.70
2019-03-09T15:56:40.910Z,12.60
2019-03-09T15:59:11.359Z,12.60
2019-03-09T16:01:41.547Z,12.60
2019-03-09T16:04:11.490Z,12.40
2019-03-09T16:06:42.093Z,12.30
2019-03-09T16:09:12.083Z,12.10
2019-03-09T16:11:44.820Z,11.90
2019-03-09T16:14:13.643Z,11.80
2019-03-09T16:16:44.937Z,11.70
2019-03-09T16:19:14.929Z,11.60
2019-03-09T16:21:45.780Z,11.50
2019-03-09T16:24:15.928Z,11.50
2019-03-09T16:26:45.784Z,11.50
2019-03-09T16:29:15.741Z,11.50
2019-03-09T16:31:45.619Z,11.40
2019-03-09T16:34:15.955Z,11.50
2019-03-09T16:36:46.455Z,11.60
2019-03-09T16:39:16.231Z,11.40
2019-03-09T16:41:45.889Z,11.40
2019-03-09T16:44:16.355Z,11.40
2019-03-09T16:46:48.199Z,11.40
2019-03-09T16:49:18.578Z,11.30
2019-03-09T16:51:48.842Z,11.40
2019-03-09T16:54:19.194Z,11.40
2019-03-09T16:56:49.004Z,11.40
2019-03-09T16:59:19.290Z,11.20
2019-03-09T17:01:49.035Z,11.20
2019-03-09T17:04:19.442Z,11.20
2019-03-09T17:06:49.877Z,11.20
2019-03-09T17:09:20.364Z,11.20
2019-03-09T17:11:50.031Z,11.20
2019-03-09T17:14:20.407Z,11.10
2019-03-09T17:16:50.367Z,11.10
2019-03-09T17:19:21.741Z,11.10
2019-03-09T17:21:51.958Z,11.10
2019-03-09T17:24:22.315Z,11.00
2019-03-09T17:26:51.950Z,11.00
2019-03-09T17:29:22.390Z,11.10
2019-03-09T17:31:52.438Z,11.10
2019-03-09T17:34:23.013Z,11.10
2019-03-09T17:36:52.980Z,11.10
2019-03-09T17:39:22.847Z,11.00
2019-03-09T17:41:52.533Z,11.00
2019-03-09T17:44:22.975Z,11.00
2019-03-09T17:46:53.357Z,11.00
2019-03-09T17:49:23.705Z,11.00
2019-03-09T17:51:53.486Z,11.10
2019-03-09T17:54:24.020Z,11.10
2019-03-09T17:56:54.218Z,11.20
2019-03-09T17:59:24.628Z,11.20
2019-03-09T18:01:54.968Z,11.20
2019-03-09T18:04:25.546Z,11.20
2019-03-09T18:06:55.646Z,11.20
2019-03-09T18:09:25.895Z,11.10
2019-03-09T18:11:55.766Z,11.10
2019-03-09T18:14:26.813Z,11.10
2019-03-09T18:16:56.478Z,11.10
2019-03-09T18:19:27.208Z,11.00
2019-03-09T18:21:56.875Z,11.00
2019-03-09T18:24:27.054Z,11.00
2019-03-09T18:26:57.309Z,11.00
2019-03-09T18:29:27.195Z,10.90
2019-03-09T18:31:56.943Z,10.80
2019-03-09T18:34:26.643Z,10.80
2019-03-09T18:36:56.390Z,10.70
2019-03-09T18:39:26.176Z,10.80
2019-03-09T18:44:32.175Z,10.80
2019-03-09T18:47:05.115Z,10.80
2019-03-09T18:49:34.933Z,10.70
2019-03-09T18:52:04.708Z,10.80
2019-03-09T18:54:34.513Z,10.80
2019-03-09T18:57:04.255Z,10.80
2019-03-09T18:59:35.016Z,10.80
2019-03-09T19:02:04.916Z,10.70
2019-03-09T19:04:34.665Z,10.70
2019-03-09T19:07:05.163Z,10.80
2019-03-09T19:09:34.866Z,10.80
2019-03-09T19:12:04.677Z,10.90
2019-03-09T19:14:34.667Z,10.80
2019-03-09T19:17:04.417Z,10.80
2019-03-09T19:19:34.217Z,10.80
2019-03-09T19:22:04.008Z,10.80
2019-03-09T19:24:34.629Z,10.70
2019-03-09T19:27:04.373Z,10.70
2019-03-09T19:29:34.288Z,10.90
2019-03-09T19:32:04.107Z,10.90
2019-03-09T19:34:34.267Z,10.90
2019-03-09T19:37:13.573Z,10.90
2019-03-09T19:39:43.327Z,10.90
2019-03-09T19:42:13.704Z,10.90
2019-03-09T19:44:43.579Z,10.90
2019-03-09T19:47:13.484Z,10.90
2019-03-09T19:49:43.376Z,10.90
2019-03-09T19:52:13.221Z,10.90
2019-03-09T19:54:43.127Z,10.90
2019-03-09T19:57:13.062Z,10.90
2019-03-09T19:59:42.904Z,11.00
2019-03-09T20:02:12.745Z,11.00
2019-03-09T20:04:43.238Z,11.00
2019-03-09T20:07:13.081Z,11.00
2019-03-09T20:09:42.860Z,11.10
2019-03-09T20:12:13.740Z,11.10
2019-03-09T20:14:43.526Z,11.10
2019-03-09T20:17:13.371Z,11.10
2019-03-09T20:19:43.172Z,11.20
2019-03-09T20:22:12.948Z,11.10
2019-03-09T20:24:42.839Z,11.10
2019-03-09T20:27:12.702Z,11.10
2019-03-09T20:29:43.207Z,11.10
2019-03-09T20:32:13.115Z,11.10
2019-03-09T20:34:43.094Z,11.20
2019-03-09T20:37:12.855Z,11.20
2019-03-09T20:39:42.927Z,11.20
2019-03-09T20:42:12.659Z,11.20
2019-03-09T20:44:42.446Z,11.30
2019-03-09T20:47:12.339Z,11.30
2019-03-09T20:49:42.271Z,11.30
2019-03-09T20:52:12.126Z,11.30
2019-03-09T20:54:41.941Z,11.40
2019-03-09T20:57:12.108Z,11.30
2019-03-09T20:59:41.875Z,11.40
2019-03-09T21:02:11.695Z,11.40
2019-03-09T21:04:41.532Z,11.40
2019-03-09T21:07:11.308Z,11.40
2019-03-09T21:09:41.278Z,11.40
2019-03-09T21:12:10.981Z,11.40
2019-03-09T21:14:41.056Z,11.40
2019-03-09T21:17:10.870Z,11.40
2019-03-09T21:19:41.097Z,11.40
2019-03-09T21:22:10.974Z,11.40
2019-03-09T21:24:40.948Z,11.50
2019-03-09T21:27:11.009Z,11.50
2019-03-09T21:29:40.884Z,11.50
2019-03-09T21:32:10.631Z,11.50
2019-03-09T21:34:40.519Z,11.60
2019-03-09T21:37:10.377Z,11.60
2019-03-09T21:39:40.079Z,11.60
2019-03-09T21:42:10.014Z,11.60
2019-03-09T21:44:40.039Z,11.70
2019-03-09T21:47:09.917Z,11.70
2019-03-09T21:49:39.720Z,11.70
2019-03-09T21:52:09.663Z,11.70
2019-03-09T21:54:39.456Z,11.80
2019-03-09T21:57:10.273Z,11.80
2019-03-09T21:59:40.537Z,11.80
2019-03-09T22:02:10.803Z,11.80
2019-03-09T22:04:40.539Z,11.80
2019-03-09T22:07:10.422Z,11.80
2019-03-09T22:09:40.171Z,11.80
2019-03-09T22:12:09.915Z,11.80
2019-03-09T22:14:39.823Z,11.80
2019-03-09T22:17:09.513Z,11.90
2019-03-09T22:19:39.355Z,11.90
2019-03-09T22:22:09.068Z,11.80
2019-03-09T22:24:39.016Z,11.80
2019-03-09T22:27:08.700Z,11.90
2019-03-09T22:29:38.521Z,11.80
2019-03-09T22:32:08.410Z,11.80
2019-03-09T22:34:38.262Z,11.80
2019-03-09T22:37:08.411Z,11.80
2019-03-09T22:39:38.249Z,11.80
2019-03-09T22:42:08.478Z,11.70
2019-03-09T22:44:38.385Z,11.80
2019-03-09T22:47:11.934Z,11.80
2019-03-09T22:49:39.976Z,11.80
2019-03-09T22:52:10.957Z,11.80
2019-03-09T22:54:40.826Z,11.80
2019-03-09T22:57:10.666Z,11.70
2019-03-09T22:59:40.516Z,11.70
2019-03-09T23:02:11.273Z,11.80
2019-03-09T23:04:41.664Z,11.80
2019-03-09T23:07:11.535Z,11.80
2019-03-09T23:09:41.360Z,11.70
2019-03-09T23:12:11.373Z,11.70
2019-03-09T23:14:41.308Z,11.70
2019-03-09T23:17:11.143Z,11.70
2019-03-09T23:19:41.234Z,11.70
2019-03-09T23:22:11.066Z,11.70
2019-03-09T23:24:40.905Z,11.70
2019-03-09T23:27:10.973Z,11.70
2019-03-09T23:29:41.782Z,11.70
2019-03-09T23:32:11.621Z,11.70
2019-03-09T23:34:41.781Z,11.70
2019-03-09T23:37:11.776Z,11.70
2019-03-09T23:39:41.591Z,11.70
2019-03-09T23:42:11.800Z,11.80
2019-03-09T23:44:41.475Z,11.80
2019-03-09T23:47:11.497Z,11.80
2019-03-09T23:49:41.469Z,11.70
2019-03-09T23:52:11.345Z,11.80
2019-03-09T23:54:41.983Z,11.70
2019-03-09T23:57:12.531Z,11.60
2019-03-09T23:59:42.437Z,11.70
